createdAt,value
2023-11-24T00:00:54.379Z,0.00
2023-11-24T00:01:54.368Z,0.00
2023-11-24T00:02:54.723Z,0.00
2023-11-24T00:03:55.160Z,0.00
2023-11-24T00:04:54.675Z,0.00
2023-11-24T00:05:55.037Z,0.00
2023-11-24T00:06:54.304Z,0.00
2023-11-24T00:07:54.710Z,0.00
2023-11-24T00:08:54.249Z,0.00
2023-11-24T00:09:54.228Z,0.00
2023-11-24T00:10:54.261Z,0.00
2023-11-24T00:11:54.184Z,0.00
2023-11-24T00:12:54.274Z,0.00
2023-11-24T00:13:54.174Z,0.00
2023-11-24T00:14:54.180Z,0.00
2023-11-24T00:15:54.166Z,0.00
2023-11-24T00:16:54.212Z,0.00
2023-11-24T00:17:56.403Z,0.00
2023-11-24T00:18:54.152Z,0.00
2023-11-24T00:19:54.145Z,0.00
2023-11-24T00:20:54.132Z,0.00
2023-11-24T00:21:54.125Z,0.00
2023-11-24T00:22:54.104Z,0.00
2023-11-24T00:23:54.073Z,0.00
2023-11-24T00:24:54.091Z,0.00
2023-11-24T00:25:54.087Z,0.00
2023-11-24T00:26:54.040Z,0.00
2023-11-24T00:27:54.120Z,0.00
2023-11-24T00:28:54.057Z,0.00
2023-11-24T00:29:54.036Z,0.00
2023-11-24T00:30:54.044Z,0.00
2023-11-24T00:31:54.034Z,0.00
2023-11-24T00:32:54.062Z,0.00
2023-11-24T00:33:54.141Z,0.00
2023-11-24T00:34:53.974Z,0.00
2023-11-24T00:35:53.944Z,0.00
2023-11-24T00:36:54.043Z,0.00
2023-11-24T00:37:53.975Z,0.00
2023-11-24T00:38:53.943Z,0.00
2023-11-24T00:39:53.956Z,0.00
2023-11-24T00:40:53.899Z,0.00
2023-11-24T00:41:53.867Z,0.00
2023-11-24T00:42:53.958Z,0.00
2023-11-24T00:43:53.876Z,0.00
2023-11-24T00:44:53.867Z,0.00
2023-11-24T00:45:53.903Z,0.00
2023-11-24T00:46:53.856Z,0.00
2023-11-24T00:47:53.872Z,0.00
2023-11-24T00:48:53.834Z,0.00
2023-11-24T00:49:53.783Z,0.00
2023-11-24T00:50:53.820Z,0.00
2023-11-24T00:51:53.808Z,0.00
2023-11-24T00:52:53.818Z,0.00
2023-11-24T00:53:53.770Z,0.00
2023-11-24T00:54:53.797Z,0.00
2023-11-24T00:55:53.720Z,0.00
2023-11-24T00:56:53.725Z,0.00
2023-11-24T00:57:53.730Z,0.00
2023-11-24T00:58:53.732Z,0.00
2023-11-24T00:59:53.721Z,0.00
2023-11-24T01:00:53.705Z,0.00
2023-11-24T01:01:53.756Z,0.00
2023-11-24T01:02:53.692Z,0.00
2023-11-24T01:03:53.723Z,0.00
2023-11-24T01:04:53.692Z,0.00
2023-11-24T01:05:53.651Z,0.00
2023-11-24T01:06:53.674Z,0.00
2023-11-24T01:07:53.590Z,0.00
2023-11-24T01:08:53.628Z,0.00
2023-11-24T01:09:53.650Z,0.00
2023-11-24T01:10:53.598Z,0.00
2023-11-24T01:11:53.567Z,0.00
2023-11-24T01:12:53.650Z,0.00
2023-11-24T01:13:53.580Z,0.00
2023-11-24T01:14:53.584Z,0.00
2023-11-24T01:15:53.569Z,0.00
2023-11-24T01:16:53.578Z,0.00
2023-11-24T01:17:53.535Z,0.00
2023-11-24T01:18:53.480Z,0.00
2023-11-24T01:19:53.518Z,0.00
2023-11-24T01:20:53.467Z,0.00
2023-11-24T01:21:53.501Z,0.00
2023-11-24T01:22:53.437Z,0.00
2023-11-24T01:23:53.960Z,0.00
2023-11-24T01:24:53.496Z,0.00
2023-11-24T01:25:53.425Z,0.00
2023-11-24T01:26:53.402Z,0.00
2023-11-24T01:27:53.440Z,0.00
2023-11-24T01:28:53.452Z,0.00
2023-11-24T01:29:53.378Z,0.00
2023-11-24T01:30:55.871Z,0.00
2023-11-24T01:31:53.344Z,0.00
2023-11-24T01:32:53.365Z,0.00
2023-11-24T01:33:53.391Z,0.00
2023-11-24T01:34:53.319Z,0.00
2023-11-24T01:35:53.300Z,0.00
2023-11-24T01:36:53.431Z,0.00
2023-11-24T01:37:53.284Z,0.00
2023-11-24T01:38:53.272Z,0.00
2023-11-24T01:39:53.333Z,0.00
2023-11-24T01:40:53.484Z,0.00
2023-11-24T01:41:53.304Z,0.00
2023-11-24T01:42:53.263Z,0.00
2023-11-24T01:43:53.212Z,0.00
2023-11-24T01:44:53.203Z,0.00
2023-11-24T01:45:53.237Z,0.00
2023-11-24T01:46:53.264Z,0.00
2023-11-24T01:47:53.233Z,0.00
2023-11-24T01:48:53.183Z,0.00
2023-11-24T01:49:53.154Z,0.00
2023-11-24T01:50:53.153Z,0.00
2023-11-24T01:51:53.173Z,0.00
2023-11-24T01:52:53.160Z,0.00
2023-11-24T01:53:53.125Z,0.00
2023-11-24T01:54:53.160Z,0.00
2023-11-24T01:55:53.103Z,0.00
2023-11-24T01:56:53.108Z,0.00
2023-11-24T01:57:53.089Z,0.00
2023-11-24T01:58:53.127Z,0.00
2023-11-24T01:59:53.072Z,0.00
2023-11-24T02:00:53.093Z,0.00
2023-11-24T02:01:53.062Z,0.00
2023-11-24T02:02:53.085Z,0.00
2023-11-24T02:03:53.241Z,0.00
2023-11-24T02:04:53.003Z,0.00
2023-11-24T02:05:53.007Z,0.00
2023-11-24T02:06:53.037Z,0.00
2023-11-24T02:07:52.992Z,0.00
2023-11-24T02:08:52.952Z,0.00
2023-11-24T02:09:52.986Z,0.00
2023-11-24T02:10:52.937Z,0.00
2023-11-24T02:11:52.946Z,0.00
2023-11-24T02:12:52.980Z,0.00
2023-11-24T02:13:53.022Z,0.00
2023-11-24T02:14:52.896Z,0.00
2023-11-24T02:15:54.630Z,0.00
2023-11-24T02:16:52.922Z,0.00
2023-11-24T02:17:52.944Z,0.00
2023-11-24T02:18:52.860Z,0.00
2023-11-24T02:19:52.833Z,0.00
2023-11-24T02:20:52.832Z,0.00
2023-11-24T02:21:52.914Z,0.00
2023-11-24T02:22:52.793Z,0.00
2023-11-24T02:23:52.843Z,0.00
2023-11-24T02:24:52.849Z,0.00
2023-11-24T02:25:52.804Z,0.00
2023-11-24T02:26:52.751Z,0.00
2023-11-24T02:27:52.763Z,0.00
2023-11-24T02:28:52.774Z,0.00
2023-11-24T02:29:52.751Z,0.00
2023-11-24T02:30:52.759Z,0.00
2023-11-24T02:31:52.734Z,0.00
2023-11-24T02:32:52.746Z,0.00
2023-11-24T02:33:52.719Z,0.00
2023-11-24T02:34:52.699Z,0.00
2023-11-24T02:35:52.705Z,0.00
2023-11-24T02:36:52.701Z,0.00
2023-11-24T02:37:52.675Z,0.00
2023-11-24T02:38:52.626Z,0.00
2023-11-24T02:39:52.735Z,0.00
2023-11-24T02:40:52.636Z,0.00
2023-11-24T02:41:52.641Z,0.00
2023-11-24T02:42:52.632Z,0.00
2023-11-24T02:43:52.652Z,0.00
2023-11-24T02:44:52.591Z,0.00
2023-11-24T02:45:52.591Z,0.00
2023-11-24T02:46:52.576Z,0.00
2023-11-24T02:47:52.613Z,0.00
2023-11-24T02:48:52.598Z,0.00
2023-11-24T02:49:52.521Z,0.00
2023-11-24T02:50:52.508Z,0.00
2023-11-24T02:51:52.536Z,0.00
2023-11-24T02:52:52.554Z,0.00
2023-11-24T02:53:52.509Z,0.00
2023-11-24T02:54:52.501Z,0.00
2023-11-24T02:55:52.506Z,0.00
2023-11-24T02:56:52.467Z,0.00
2023-11-24T02:57:52.470Z,0.00
2023-11-24T02:58:52.437Z,0.00
2023-11-24T02:59:52.464Z,0.00
2023-11-24T03:00:52.470Z,0.00
2023-11-24T03:01:52.556Z,0.00
2023-11-24T03:02:52.391Z,0.00
2023-11-24T03:03:52.448Z,0.00
2023-11-24T03:04:52.415Z,0.00
2023-11-24T03:05:52.384Z,0.00
2023-11-24T03:06:52.427Z,0.00
2023-11-24T03:07:52.362Z,0.00
2023-11-24T03:08:52.335Z,0.00
2023-11-24T03:09:52.371Z,0.00
2023-11-24T03:10:52.338Z,0.00
2023-11-24T03:11:52.298Z,0.00
2023-11-24T03:12:52.316Z,0.00
2023-11-24T03:13:52.269Z,0.00
2023-11-24T03:14:52.293Z,0.00
2023-11-24T03:15:52.303Z,0.00
2023-11-24T03:16:52.350Z,0.00
2023-11-24T03:17:52.320Z,0.00
2023-11-24T03:18:52.275Z,0.00
2023-11-24T03:19:52.275Z,0.00
2023-11-24T03:20:52.203Z,0.00
2023-11-24T03:21:52.244Z,0.00
2023-11-24T03:22:52.181Z,0.00
2023-11-24T03:23:52.197Z,0.00
2023-11-24T03:24:52.215Z,0.00
2023-11-24T03:25:52.222Z,0.00
2023-11-24T03:26:52.190Z,0.00
2023-11-24T03:27:52.161Z,0.00
2023-11-24T03:28:52.117Z,0.00
2023-11-24T03:29:52.187Z,0.00
2023-11-24T03:30:52.137Z,0.00
2023-11-24T03:31:52.116Z,0.00
2023-11-24T03:32:52.112Z,0.00
2023-11-24T03:33:52.153Z,0.00
2023-11-24T03:34:52.047Z,0.00
2023-11-24T03:35:52.048Z,0.00
2023-11-24T03:36:52.084Z,0.00
2023-11-24T03:37:52.017Z,0.00
2023-11-24T03:38:52.040Z,0.00
2023-11-24T03:39:52.086Z,0.00
2023-11-24T03:40:52.006Z,0.00
2023-11-24T03:41:52.029Z,0.00
2023-11-24T03:42:52.037Z,0.00
2023-11-24T03:43:51.975Z,0.00
2023-11-24T03:44:52.043Z,0.00
2023-11-24T03:45:52.042Z,0.00
2023-11-24T03:46:52.040Z,0.00
2023-11-24T03:47:52.153Z,0.00
2023-11-24T03:48:51.990Z,0.00
2023-11-24T03:49:51.987Z,0.00
2023-11-24T03:50:51.940Z,0.00
2023-11-24T03:51:52.035Z,0.00
2023-11-24T03:52:52.076Z,0.00
2023-11-24T03:53:51.965Z,0.00
2023-11-24T03:54:52.096Z,0.00
2023-11-24T03:55:52.030Z,0.00
2023-11-24T03:56:51.978Z,0.00
2023-11-24T03:57:51.890Z,0.00
2023-11-24T03:58:51.830Z,0.00
2023-11-24T03:59:51.877Z,0.00
2023-11-24T04:00:52.042Z,0.00
2023-11-24T04:01:51.997Z,0.00
2023-11-24T04:02:51.864Z,0.00
2023-11-24T04:03:51.910Z,0.00
2023-11-24T04:04:51.752Z,0.00
2023-11-24T04:05:51.746Z,0.00
2023-11-24T04:06:51.773Z,0.00
2023-11-24T04:07:51.724Z,0.00
2023-11-24T04:08:51.722Z,0.00
2023-11-24T04:09:51.718Z,0.00
2023-11-24T04:10:51.699Z,0.00
2023-11-24T04:11:51.655Z,0.00
2023-11-24T04:12:51.712Z,0.00
2023-11-24T04:13:51.631Z,0.00
2023-11-24T04:14:51.650Z,0.00
2023-11-24T04:15:51.758Z,0.00
2023-11-24T04:16:51.644Z,0.00
2023-11-24T04:17:51.659Z,0.00
2023-11-24T04:18:51.666Z,0.00
2023-11-24T04:19:51.596Z,0.00
2023-11-24T04:20:51.591Z,0.00
2023-11-24T04:21:51.601Z,0.00
2023-11-24T04:22:51.581Z,0.00
2023-11-24T04:23:51.566Z,0.00
2023-11-24T04:24:51.579Z,0.00
2023-11-24T04:25:51.514Z,0.00
2023-11-24T04:26:51.560Z,0.00
2023-11-24T04:27:51.561Z,0.00
2023-11-24T04:28:51.502Z,0.00
2023-11-24T04:29:51.507Z,0.00
2023-11-24T04:30:51.495Z,0.00
2023-11-24T04:31:51.453Z,0.00
2023-11-24T04:32:51.520Z,0.00
2023-11-24T04:33:51.460Z,0.00
2023-11-24T04:34:51.502Z,0.00
2023-11-24T04:35:51.460Z,0.00
2023-11-24T04:36:51.447Z,0.00
2023-11-24T04:37:51.395Z,0.00
2023-11-24T04:38:51.379Z,0.00
2023-11-24T04:39:51.400Z,0.00
2023-11-24T04:40:51.396Z,0.00
2023-11-24T04:41:51.370Z,0.00
2023-11-24T04:42:51.368Z,0.00
2023-11-24T04:43:51.347Z,0.00
2023-11-24T04:44:51.306Z,0.00
2023-11-24T04:45:51.375Z,0.00
2023-11-24T04:46:51.352Z,0.00
2023-11-24T04:47:51.331Z,0.00
2023-11-24T04:48:51.381Z,0.00
2023-11-24T04:49:51.287Z,0.00
2023-11-24T04:50:51.272Z,0.00
2023-11-24T04:51:51.288Z,0.00
2023-11-24T04:52:51.262Z,0.00
2023-11-24T04:53:51.285Z,0.00
2023-11-24T04:54:51.334Z,0.00
2023-11-24T04:55:51.206Z,0.00
2023-11-24T04:56:51.183Z,0.00
2023-11-24T04:57:51.593Z,0.00
2023-11-24T04:58:51.201Z,0.00
2023-11-24T04:59:51.175Z,0.00
2023-11-24T05:00:51.221Z,0.00
2023-11-24T05:01:51.214Z,0.00
2023-11-24T05:02:51.163Z,0.00
2023-11-24T05:03:51.201Z,0.00
2023-11-24T05:04:51.103Z,0.00
2023-11-24T05:05:51.137Z,0.00
2023-11-24T05:06:51.112Z,0.00
2023-11-24T05:07:51.088Z,0.00
2023-11-24T05:08:51.073Z,0.00
2023-11-24T05:09:51.097Z,0.00
2023-11-24T05:10:51.055Z,0.00
2023-11-24T05:11:51.030Z,0.00
2023-11-24T05:12:51.076Z,0.00
2023-11-24T05:13:51.017Z,0.00
2023-11-24T05:14:51.015Z,0.00
2023-11-24T05:15:51.170Z,0.00
2023-11-24T05:16:51.107Z,0.00
2023-11-24T05:17:51.046Z,0.00
2023-11-24T05:18:51.012Z,0.00
2023-11-24T05:19:50.954Z,0.00
2023-11-24T05:20:50.939Z,0.00
2023-11-24T05:21:51.023Z,0.00
2023-11-24T05:22:50.915Z,0.00
2023-11-24T05:23:50.989Z,0.00
2023-11-24T05:24:50.966Z,0.00
2023-11-24T05:25:50.891Z,0.00
2023-11-24T05:26:51.035Z,0.00
2023-11-24T05:27:50.921Z,0.00
2023-11-24T05:28:50.864Z,0.00
2023-11-24T05:29:50.865Z,0.00
2023-11-24T05:30:50.858Z,0.00
2023-11-24T05:31:50.863Z,0.00
2023-11-24T05:32:50.938Z,0.00
2023-11-24T05:33:50.852Z,0.00
2023-11-24T05:34:50.836Z,0.00
2023-11-24T05:35:50.780Z,0.00
2023-11-24T05:36:50.789Z,0.00
2023-11-24T05:37:50.778Z,0.00
2023-11-24T05:38:50.756Z,0.00
2023-11-24T05:39:50.819Z,0.00
2023-11-24T05:40:50.748Z,0.00
2023-11-24T05:41:50.794Z,0.00
2023-11-24T05:42:50.870Z,0.00
2023-11-24T05:43:50.724Z,0.00
2023-11-24T05:44:50.694Z,0.00
2023-11-24T05:45:50.743Z,0.00
2023-11-24T05:46:50.727Z,0.00
2023-11-24T05:47:50.711Z,0.00
2023-11-24T05:48:50.666Z,0.00
2023-11-24T05:49:50.665Z,0.00
2023-11-24T05:50:50.630Z,0.00
2023-11-24T05:51:50.604Z,0.00
2023-11-24T05:52:50.630Z,0.00
2023-11-24T05:53:50.614Z,0.00
2023-11-24T05:54:50.609Z,0.00
2023-11-24T05:55:50.594Z,0.00
2023-11-24T05:56:50.604Z,0.00
2023-11-24T05:57:50.693Z,0.00
2023-11-24T05:58:50.550Z,0.00
2023-11-24T05:59:50.550Z,0.00
2023-11-24T06:00:50.597Z,0.00
2023-11-24T06:01:50.553Z,0.00
2023-11-24T06:02:50.533Z,0.00
2023-11-24T06:03:50.620Z,0.00
2023-11-24T06:04:50.669Z,0.00
2023-11-24T06:05:50.474Z,0.00
2023-11-24T06:06:50.498Z,0.00
2023-11-24T06:07:53.451Z,0.00
2023-11-24T06:08:50.459Z,0.00
2023-11-24T06:09:50.458Z,0.00
2023-11-24T06:10:50.405Z,0.00
2023-11-24T06:11:50.441Z,0.00
2023-11-24T06:12:50.410Z,0.00
2023-11-24T06:13:50.418Z,0.00
2023-11-24T06:14:50.470Z,0.00
2023-11-24T06:15:50.417Z,0.00
2023-11-24T06:16:50.369Z,0.00
2023-11-24T06:17:50.408Z,0.00
2023-11-24T06:18:50.379Z,0.00
2023-11-24T06:19:50.356Z,0.00
2023-11-24T06:20:50.327Z,0.00
2023-11-24T06:21:50.323Z,0.00
2023-11-24T06:22:50.283Z,0.00
2023-11-24T06:23:50.275Z,0.00
2023-11-24T06:24:50.285Z,0.00
2023-11-24T06:25:50.346Z,0.00
2023-11-24T06:26:50.263Z,0.00
2023-11-24T06:27:50.271Z,0.00
2023-11-24T06:28:50.234Z,0.00
2023-11-24T06:29:50.210Z,0.00
2023-11-24T06:30:50.318Z,0.00
2023-11-24T06:31:50.226Z,0.00
2023-11-24T06:32:50.227Z,0.00
2023-11-24T06:33:50.271Z,0.00
2023-11-24T06:34:50.176Z,0.00
2023-11-24T06:35:50.148Z,0.00
2023-11-24T06:36:50.185Z,0.00
2023-11-24T06:37:50.182Z,0.00
2023-11-24T06:38:50.133Z,0.00
2023-11-24T06:39:50.169Z,0.00
2023-11-24T06:40:50.123Z,0.00
2023-11-24T06:41:50.118Z,0.00
2023-11-24T06:42:50.123Z,0.00
2023-11-24T06:43:50.091Z,0.00
2023-11-24T06:44:50.074Z,0.00
2023-11-24T06:45:50.117Z,0.00
2023-11-24T06:46:50.058Z,0.00
2023-11-24T06:47:50.055Z,0.00
2023-11-24T06:48:50.055Z,0.00
2023-11-24T06:49:50.003Z,0.00
2023-11-24T06:50:49.994Z,0.00
2023-11-24T06:51:50.007Z,1.00
2023-11-24T06:52:49.989Z,0.00
2023-11-24T06:53:49.981Z,0.00
2023-11-24T06:54:49.985Z,0.00
2023-11-24T06:55:49.960Z,1.00
2023-11-24T06:56:49.881Z,1.00
2023-11-24T06:57:49.932Z,1.00
2023-11-24T06:58:49.888Z,1.00
2023-11-24T06:59:49.851Z,1.00
2023-11-24T07:00:49.957Z,0.00
2023-11-24T07:01:49.905Z,1.00
2023-11-24T07:02:50.049Z,1.00
2023-11-24T07:03:49.929Z,0.00
2023-11-24T07:04:49.797Z,3.00
2023-11-24T07:05:49.793Z,3.00
2023-11-24T07:06:49.789Z,3.00
2023-11-24T07:07:49.816Z,3.00
2023-11-24T07:08:49.797Z,4.00
2023-11-24T07:09:49.804Z,2.00
2023-11-24T07:10:49.778Z,4.00
2023-11-24T07:11:49.739Z,4.00
2023-11-24T07:12:49.757Z,4.00
2023-11-24T07:13:49.724Z,5.00
2023-11-24T07:14:49.713Z,3.00
2023-11-24T07:15:49.794Z,4.00
2023-11-24T07:16:49.711Z,6.00
2023-11-24T07:17:49.729Z,3.00
2023-11-24T07:18:49.749Z,2.00
2023-11-24T07:19:49.640Z,7.00
2023-11-24T07:20:50.643Z,8.00
2023-11-24T07:21:49.668Z,9.00
2023-11-24T07:22:49.638Z,6.00
2023-11-24T07:23:49.650Z,4.00
2023-11-24T07:24:49.603Z,7.00
2023-11-24T07:25:49.653Z,9.00
2023-11-24T07:26:49.599Z,5.00
2023-11-24T07:27:49.874Z,6.00
2023-11-24T07:28:49.592Z,6.00
2023-11-24T07:29:49.569Z,7.00
2023-11-24T07:30:49.583Z,9.00
2023-11-24T07:31:49.601Z,6.00
2023-11-24T07:32:49.608Z,5.00
2023-11-24T07:33:49.604Z,8.00
2023-11-24T07:34:49.607Z,9.00
2023-11-24T07:35:49.547Z,3.00
2023-11-24T07:36:49.604Z,6.00
2023-11-24T07:37:49.564Z,7.00
2023-11-24T07:38:49.504Z,9.00
2023-11-24T07:39:49.469Z,3.00
2023-11-24T07:40:49.424Z,2.00
2023-11-24T07:41:49.417Z,2.00
2023-11-24T07:42:49.443Z,5.00
2023-11-24T07:43:49.605Z,8.00
2023-11-24T07:44:49.385Z,18.00
2023-11-24T07:45:49.474Z,11.00
2023-11-24T07:46:49.447Z,15.00
2023-11-24T07:47:49.367Z,27.00
2023-11-24T07:48:49.368Z,35.00
2023-11-24T07:49:49.339Z,34.00
2023-11-24T07:50:49.331Z,27.00
2023-11-24T07:51:49.469Z,23.00
2023-11-24T07:52:49.329Z,22.00
2023-11-24T07:53:49.299Z,18.00
2023-11-24T07:54:49.421Z,19.00
2023-11-24T07:55:49.291Z,16.00
2023-11-24T07:56:49.300Z,21.00
2023-11-24T07:57:49.302Z,20.00
2023-11-24T07:58:49.250Z,26.00
2023-11-24T07:59:55.551Z,29.00
2023-11-24T08:00:49.242Z,26.00
2023-11-24T08:01:49.276Z,31.00
2023-11-24T08:02:49.364Z,32.00
2023-11-24T08:03:49.257Z,34.00
2023-11-24T08:04:49.381Z,34.00
2023-11-24T08:05:49.218Z,33.00
2023-11-24T08:06:49.204Z,38.00
2023-11-24T08:07:49.178Z,37.00
2023-11-24T08:08:49.172Z,42.00
2023-11-24T08:09:49.168Z,48.00
2023-11-24T08:10:49.165Z,45.00
2023-11-24T08:11:49.141Z,40.00
2023-11-24T08:12:49.188Z,42.00
2023-11-24T08:13:49.129Z,41.00
2023-11-24T08:14:49.089Z,43.00
2023-11-24T08:15:49.155Z,42.00
2023-11-24T08:16:49.138Z,42.00
2023-11-24T08:17:49.192Z,43.00
2023-11-24T08:18:51.248Z,43.00
2023-11-24T08:19:49.034Z,42.00
2023-11-24T08:20:49.020Z,43.00
2023-11-24T08:21:49.035Z,44.00
2023-11-24T08:22:49.022Z,43.00
2023-11-24T08:23:49.032Z,33.00
2023-11-24T08:24:49.082Z,42.00
2023-11-24T08:25:48.968Z,55.00
2023-11-24T08:26:48.977Z,47.00
2023-11-24T08:27:49.003Z,45.00
2023-11-24T08:28:48.942Z,45.00
2023-11-24T08:29:48.966Z,37.00
2023-11-24T08:30:48.994Z,39.00
2023-11-24T08:31:48.900Z,40.00
2023-11-24T08:32:49.026Z,34.00
2023-11-24T08:33:48.992Z,43.00
2023-11-24T08:34:48.956Z,44.00
2023-11-24T08:35:48.906Z,37.00
2023-11-24T08:36:48.953Z,44.00
2023-11-24T08:37:48.905Z,73.00
2023-11-24T08:38:48.864Z,90.00
2023-11-24T08:39:48.856Z,68.00
2023-11-24T08:40:48.843Z,76.00
2023-11-24T08:41:48.817Z,79.00
2023-11-24T08:42:48.917Z,69.00
2023-11-24T08:43:48.772Z,62.00
2023-11-24T08:44:48.758Z,52.00
2023-11-24T08:45:48.904Z,44.00
2023-11-24T08:46:48.932Z,51.00
2023-11-24T08:47:48.841Z,46.00
2023-11-24T08:48:48.727Z,48.00
2023-11-24T08:49:48.735Z,43.00
2023-11-24T08:50:48.791Z,45.00
2023-11-24T08:51:48.722Z,45.00
2023-11-24T08:52:49.175Z,51.00
2023-11-24T08:53:48.670Z,51.00
2023-11-24T08:54:48.677Z,55.00
2023-11-24T08:55:48.663Z,91.00
2023-11-24T08:56:48.633Z,117.00
2023-11-24T08:57:48.748Z,120.00
2023-11-24T08:58:48.656Z,103.00
2023-11-24T08:59:48.643Z,76.00
2023-11-24T09:00:48.620Z,63.00
2023-11-24T09:01:48.623Z,37.00
2023-11-24T09:02:48.625Z,51.00
2023-11-24T09:03:48.672Z,55.00
2023-11-24T09:04:48.623Z,58.00
2023-11-24T09:05:48.569Z,36.00
2023-11-24T09:06:48.624Z,63.00
2023-11-24T09:07:48.568Z,64.00
2023-11-24T09:08:48.517Z,68.00
2023-11-24T09:09:48.516Z,72.00
2023-11-24T09:10:48.554Z,79.00
2023-11-24T09:11:48.485Z,75.00
2023-11-24T09:12:48.532Z,67.00
2023-11-24T09:13:49.784Z,68.00
2023-11-24T09:14:48.477Z,77.00
2023-11-24T09:15:48.500Z,72.00
2023-11-24T09:16:48.469Z,63.00
2023-11-24T09:17:48.416Z,56.00
2023-11-24T09:18:48.497Z,52.00
2023-11-24T09:19:48.400Z,62.00
2023-11-24T09:20:48.394Z,70.00
2023-11-24T09:21:48.391Z,72.00
2023-11-24T09:22:48.368Z,71.00
2023-11-24T09:23:48.351Z,82.00
2023-11-24T09:24:49.545Z,74.00
2023-11-24T09:25:48.333Z,70.00
2023-11-24T09:26:48.345Z,78.00
2023-11-24T09:27:48.383Z,91.00
2023-11-24T09:28:48.328Z,82.00
2023-11-24T09:29:48.301Z,77.00
2023-11-24T09:30:48.414Z,79.00
2023-11-24T09:31:48.303Z,84.00
2023-11-24T09:32:48.353Z,80.00
2023-11-24T09:33:48.323Z,73.00
2023-11-24T09:34:48.315Z,74.00
2023-11-24T09:35:48.255Z,65.00
2023-11-24T09:36:48.294Z,73.00
2023-11-24T09:37:48.204Z,82.00
2023-11-24T09:38:48.237Z,95.00
2023-11-24T09:39:48.233Z,58.00
2023-11-24T09:40:48.182Z,26.00
2023-11-24T09:41:48.173Z,19.00
2023-11-24T09:42:48.188Z,34.00
2023-11-24T09:43:48.157Z,35.00
2023-11-24T09:44:48.154Z,37.00
2023-11-24T09:45:48.197Z,45.00
2023-11-24T09:46:51.977Z,43.00
2023-11-24T09:47:48.131Z,26.00
2023-11-24T09:48:48.122Z,42.00
2023-11-24T09:49:48.085Z,57.00
2023-11-24T09:50:48.102Z,39.00
2023-11-24T09:51:48.100Z,71.00
2023-11-24T09:52:48.056Z,71.00
2023-11-24T09:53:48.044Z,70.00
2023-11-24T09:54:48.091Z,45.00
2023-11-24T09:55:48.051Z,53.00
2023-11-24T09:56:48.039Z,73.00
2023-11-24T09:57:48.060Z,92.00
2023-11-24T09:58:48.046Z,92.00
2023-11-24T09:59:47.997Z,69.00
2023-11-24T10:00:48.014Z,47.00
2023-11-24T10:01:47.973Z,44.00
2023-11-24T10:02:47.979Z,57.00
2023-11-24T10:03:48.025Z,52.00
2023-11-24T10:04:47.943Z,52.00
2023-11-24T10:05:47.919Z,65.00
2023-11-24T10:06:47.952Z,76.00
2023-11-24T10:07:47.919Z,66.00
2023-11-24T10:08:47.951Z,81.00
2023-11-24T10:09:47.930Z,80.00
2023-11-24T10:10:47.864Z,70.00
2023-11-24T10:11:47.858Z,57.00
2023-11-24T10:12:47.846Z,52.00
2023-11-24T10:13:50.198Z,61.00
2023-11-24T10:14:47.816Z,122.00
2023-11-24T10:15:47.860Z,209.00
2023-11-24T10:16:47.844Z,167.00
2023-11-24T10:17:47.789Z,103.00
2023-11-24T10:18:47.826Z,88.00
2023-11-24T10:19:47.778Z,111.00
2023-11-24T10:20:47.763Z,95.00
2023-11-24T10:21:47.808Z,77.00
2023-11-24T10:22:47.766Z,71.00
2023-11-24T10:23:47.742Z,61.00
2023-11-24T10:24:47.741Z,82.00
2023-11-24T10:25:47.718Z,134.00
2023-11-24T10:26:47.733Z,130.00
2023-11-24T10:27:47.728Z,108.00
2023-11-24T10:28:47.685Z,82.00
2023-11-24T10:29:47.652Z,57.00
2023-11-24T10:30:47.737Z,34.00
2023-11-24T10:31:47.645Z,53.00
2023-11-24T10:32:47.693Z,60.00
2023-11-24T10:33:47.736Z,69.00
2023-11-24T10:34:47.725Z,76.00
2023-11-24T10:35:47.598Z,75.00
2023-11-24T10:36:47.656Z,64.00
2023-11-24T10:37:47.598Z,65.00
2023-11-24T10:38:47.616Z,40.00
2023-11-24T10:39:47.600Z,22.00
2023-11-24T10:40:47.572Z,34.00
2023-11-24T10:41:47.594Z,85.00
2023-11-24T10:42:47.590Z,92.00
2023-11-24T10:43:47.525Z,109.00
2023-11-24T10:44:47.500Z,109.00
2023-11-24T10:45:47.612Z,124.00
2023-11-24T10:46:47.580Z,141.00
2023-11-24T10:47:47.526Z,143.00
2023-11-24T10:48:47.554Z,99.00
2023-11-24T10:49:47.457Z,105.00
2023-11-24T10:50:47.461Z,113.00
2023-11-24T10:51:47.493Z,113.00
2023-11-24T10:52:47.443Z,87.00
2023-11-24T10:53:47.409Z,69.00
2023-11-24T10:54:47.425Z,60.00
2023-11-24T10:55:47.397Z,58.00
2023-11-24T10:56:47.417Z,72.00
2023-11-24T10:57:47.387Z,47.00
2023-11-24T10:58:47.423Z,69.00
2023-11-24T10:59:47.400Z,33.00
2023-11-24T11:00:47.446Z,166.00
2023-11-24T11:01:47.469Z,36.00
2023-11-24T11:02:47.443Z,143.00
2023-11-24T11:03:47.374Z,189.00
2023-11-24T11:04:47.339Z,125.00
2023-11-24T11:05:47.289Z,67.00
2023-11-24T11:06:47.344Z,32.00
2023-11-24T11:07:47.278Z,83.00
2023-11-24T11:08:47.290Z,104.00
2023-11-24T11:09:47.258Z,123.00
2023-11-24T11:10:47.399Z,111.00
2023-11-24T11:11:47.230Z,209.00
2023-11-24T11:12:47.238Z,52.00
2023-11-24T11:13:47.248Z,101.00
2023-11-24T11:14:47.199Z,230.00
2023-11-24T11:15:47.188Z,113.00
2023-11-24T11:16:47.229Z,212.00
2023-11-24T11:17:47.162Z,211.00
2023-11-24T11:18:47.185Z,148.00
2023-11-24T11:19:47.225Z,141.00
2023-11-24T11:20:47.152Z,113.00
2023-11-24T11:21:47.142Z,134.00
2023-11-24T11:22:47.108Z,159.00
2023-11-24T11:23:47.092Z,146.00
2023-11-24T11:24:47.156Z,182.00
2023-11-24T11:25:47.144Z,112.00
2023-11-24T11:26:47.065Z,127.00
2023-11-24T11:27:47.139Z,101.00
2023-11-24T11:28:47.080Z,137.00
2023-11-24T11:29:47.032Z,90.00
2023-11-24T11:30:47.157Z,100.00
2023-11-24T11:31:47.272Z,74.00
2023-11-24T11:32:47.035Z,56.00
2023-11-24T11:33:47.071Z,51.00
2023-11-24T11:34:47.013Z,75.00
2023-11-24T11:35:46.987Z,74.00
2023-11-24T11:36:47.038Z,50.00
2023-11-24T11:37:46.960Z,97.00
2023-11-24T11:38:46.991Z,204.00
2023-11-24T11:39:46.995Z,115.00
2023-11-24T11:40:46.946Z,114.00
2023-11-24T11:41:46.948Z,47.00
2023-11-24T11:42:46.953Z,86.00
2023-11-24T11:43:46.886Z,90.00
2023-11-24T11:44:46.894Z,47.00
2023-11-24T11:45:46.933Z,100.00
2023-11-24T11:46:46.869Z,141.00
2023-11-24T11:47:46.904Z,88.00
2023-11-24T11:48:46.875Z,26.00
2023-11-24T11:49:46.817Z,110.00
2023-11-24T11:50:46.865Z,120.00
2023-11-24T11:51:46.863Z,95.00
2023-11-24T11:52:46.941Z,100.00
2023-11-24T11:53:46.786Z,46.00
2023-11-24T11:54:46.888Z,60.00
2023-11-24T11:55:46.758Z,74.00
2023-11-24T11:56:46.809Z,74.00
2023-11-24T11:57:46.774Z,121.00
2023-11-24T11:58:46.768Z,207.00
2023-11-24T11:59:46.731Z,204.00
2023-11-24T12:00:46.738Z,132.00
2023-11-24T12:01:46.905Z,158.00
2023-11-24T12:02:46.759Z,107.00
2023-11-24T12:03:46.794Z,68.00
2023-11-24T12:04:46.707Z,70.00
2023-11-24T12:05:46.669Z,84.00
2023-11-24T12:06:46.699Z,112.00
2023-11-24T12:07:46.652Z,75.00
2023-11-24T12:08:46.647Z,241.00
2023-11-24T12:09:46.687Z,219.00
2023-11-24T12:10:46.649Z,150.00
2023-11-24T12:11:46.629Z,149.00
2023-11-24T12:12:46.629Z,157.00
2023-11-24T12:13:46.629Z,117.00
2023-11-24T12:14:46.599Z,122.00
2023-11-24T12:15:46.708Z,72.00
2023-11-24T12:16:46.648Z,61.00
2023-11-24T12:17:46.680Z,52.00
2023-11-24T12:18:46.549Z,77.00
2023-11-24T12:19:46.571Z,62.00
2023-11-24T12:20:46.511Z,70.00
2023-11-24T12:21:46.549Z,77.00
2023-11-24T12:22:46.538Z,48.00
2023-11-24T12:23:46.491Z,46.00
2023-11-24T12:24:46.506Z,28.00
2023-11-24T12:25:46.472Z,52.00
2023-11-24T12:26:46.490Z,47.00
2023-11-24T12:27:46.528Z,26.00
2023-11-24T12:28:46.420Z,31.00
2023-11-24T12:29:46.430Z,21.00
2023-11-24T12:30:46.474Z,12.00
2023-11-24T12:31:46.570Z,10.00
2023-11-24T12:32:46.502Z,14.00
2023-11-24T12:33:46.433Z,16.00
2023-11-24T12:34:46.545Z,33.00
2023-11-24T12:35:46.377Z,40.00
2023-11-24T12:36:46.413Z,50.00
2023-11-24T12:37:46.367Z,42.00
2023-11-24T12:38:46.370Z,26.00
2023-11-24T12:39:46.323Z,15.00
2023-11-24T12:40:46.307Z,12.00
2023-11-24T12:41:46.292Z,37.00
2023-11-24T12:42:46.301Z,61.00
2023-11-24T12:43:46.297Z,78.00
2023-11-24T12:44:46.256Z,78.00
2023-11-24T12:45:46.335Z,68.00
2023-11-24T12:46:46.397Z,58.00
2023-11-24T12:47:46.273Z,56.00
2023-11-24T12:48:46.237Z,50.00
2023-11-24T12:49:46.208Z,34.00
2023-11-24T12:50:46.192Z,40.00
2023-11-24T12:51:46.365Z,140.00
2023-11-24T12:52:46.276Z,138.00
2023-11-24T12:53:46.213Z,138.00
2023-11-24T12:54:46.214Z,138.00
2023-11-24T12:55:46.156Z,125.00
2023-11-24T12:56:46.142Z,138.00
2023-11-24T12:57:46.186Z,135.00
2023-11-24T12:58:46.110Z,132.00
2023-11-24T12:59:46.130Z,136.00
2023-11-24T13:00:46.137Z,131.00
2023-11-24T13:01:46.165Z,132.00
2023-11-24T13:02:46.830Z,138.00
2023-11-24T13:03:46.138Z,141.00
2023-11-24T13:04:46.203Z,163.00
2023-11-24T13:05:46.056Z,172.00